sensor_id;sensor_type;location;lat;lon;timestamp;P1;durP1;ratioP1;P2;durP2;ratioP2
11386;SDS011;5748;53.102;8.456;2023-02-01T00:01:33;5.63;;;1.77;;
11386;SDS011;5748;53.102;8.456;2023-02-01T00:04:00;4.63;;;1.57;;
11386;SDS011;5748;53.102;8.456;2023-02-01T00:06:29;4.07;;;1.50;;
11386;SDS011;5748;53.102;8.456;2023-02-01T00:08:56;4.07;;;1.53;;
11386;SDS011;5748;53.102;8.456;2023-02-01T00:11:23;4.40;;;1.60;;
11386;SDS011;5748;53.102;8.456;2023-02-01T00:13:51;5.07;;;1.80;;
11386;SDS011;5748;53.102;8.456;2023-02-01T00:16:19;6.07;;;1.77;;
11386;SDS011;5748;53.102;8.456;2023-02-01T00:18:56;4.57;;;1.90;;
11386;SDS011;5748;53.102;8.456;2023-02-01T00:21:26;4.30;;;1.57;;
11386;SDS011;5748;53.102;8.456;2023-02-01T00:23:55;4.90;;;1.93;;
11386;SDS011;5748;53.102;8.456;2023-02-01T00:26:24;4.97;;;1.70;;
11386;SDS011;5748;53.102;8.456;2023-02-01T00:28:57;5.97;;;1.97;;
11386;SDS011;5748;53.102;8.456;2023-02-01T00:31:24;7.23;;;2.23;;
11386;SDS011;5748;53.102;8.456;2023-02-01T00:33:51;6.03;;;2.20;;
11386;SDS011;5748;53.102;8.456;2023-02-01T00:36:18;4.20;;;1.90;;
11386;SDS011;5748;53.102;8.456;2023-02-01T00:38:47;5.60;;;1.73;;
11386;SDS011;5748;53.102;8.456;2023-02-01T00:41:14;3.20;;;1.60;;
11386;SDS011;5748;53.102;8.456;2023-02-01T00:43:52;4.90;;;2.00;;
11386;SDS011;5748;53.102;8.456;2023-02-01T00:46:20;5.90;;;2.13;;
11386;SDS011;5748;53.102;8.456;2023-02-01T00:48:48;5.77;;;1.90;;
11386;SDS011;5748;53.102;8.456;2023-02-01T00:51:15;5.67;;;1.93;;
11386;SDS011;5748;53.102;8.456;2023-02-01T00:53:48;5.77;;;1.70;;
11386;SDS011;5748;53.102;8.456;2023-02-01T00:56:16;5.10;;;1.73;;
11386;SDS011;5748;53.102;8.456;2023-02-01T00:58:43;4.73;;;1.80;;
11386;SDS011;5748;53.102;8.456;2023-02-01T01:01:11;5.47;;;1.90;;
11386;SDS011;5748;53.102;8.456;2023-02-01T01:03:41;4.57;;;1.90;;
11386;SDS011;5748;53.102;8.456;2023-02-01T01:06:13;3.47;;;1.57;;
11386;SDS011;5748;53.102;8.456;2023-02-01T01:08:42;5.03;;;2.13;;
11386;SDS011;5748;53.102;8.456;2023-02-01T01:11:12;5.10;;;1.93;;
11386;SDS011;5748;53.102;8.456;2023-02-01T01:13:42;6.87;;;2.13;;
11386;SDS011;5748;53.102;8.456;2023-02-01T01:16:10;6.27;;;1.83;;
11386;SDS011;5748;53.102;8.456;2023-02-01T01:18:37;7.07;;;2.53;;
11386;SDS011;5748;53.102;8.456;2023-02-01T01:21:05;5.23;;;1.93;;
11386;SDS011;5748;53.102;8.456;2023-02-01T01:23:34;4.30;;;1.60;;
11386;SDS011;5748;53.102;8.456;2023-02-01T01:26:04;4.70;;;1.80;;
11386;SDS011;5748;53.102;8.456;2023-02-01T01:28:34;5.13;;;1.67;;
11386;SDS011;5748;53.102;8.456;2023-02-01T01:31:01;4.70;;;2.20;;
11386;SDS011;5748;53.102;8.456;2023-02-01T01:33:29;4.37;;;1.90;;
11386;SDS011;5748;53.102;8.456;2023-02-01T01:35:56;4.37;;;1.60;;
11386;SDS011;5748;53.102;8.456;2023-02-01T01:38:23;3.50;;;1.70;;
11386;SDS011;5748;53.102;8.456;2023-02-01T01:40:50;7.43;;;2.10;;
11386;SDS011;5748;53.102;8.456;2023-02-01T01:43:18;5.40;;;2.17;;
11386;SDS011;5748;53.102;8.456;2023-02-01T01:45:49;4.47;;;1.90;;
11386;SDS011;5748;53.102;8.456;2023-02-01T01:48:18;5.53;;;1.97;;
11386;SDS011;5748;53.102;8.456;2023-02-01T01:50:55;4.43;;;1.83;;
11386;SDS011;5748;53.102;8.456;2023-02-01T01:53:29;5.67;;;2.00;;
11386;SDS011;5748;53.102;8.456;2023-02-01T01:56:03;3.03;;;1.77;;
11386;SDS011;5748;53.102;8.456;2023-02-01T01:58:31;5.33;;;1.60;;
11386;SDS011;5748;53.102;8.456;2023-02-01T02:01:01;4.97;;;1.70;;
11386;SDS011;5748;53.102;8.456;2023-02-01T02:03:30;5.73;;;1.93;;
11386;SDS011;5748;53.102;8.456;2023-02-01T02:06:02;4.90;;;1.87;;
11386;SDS011;5748;53.102;8.456;2023-02-01T02:08:38;4.80;;;1.80;;
11386;SDS011;5748;53.102;8.456;2023-02-01T02:11:06;6.70;;;2.00;;
11386;SDS011;5748;53.102;8.456;2023-02-01T02:13:35;5.80;;;1.80;;
11386;SDS011;5748;53.102;8.456;2023-02-01T02:16:13;4.80;;;1.80;;
11386;SDS011;5748;53.102;8.456;2023-02-01T02:18:56;4.10;;;1.70;;
11386;SDS011;5748;53.102;8.456;2023-02-01T02:21:52;5.87;;;2.00;;
11386;SDS011;5748;53.102;8.456;2023-02-01T02:24:40;5.27;;;1.60;;
11386;SDS011;5748;53.102;8.456;2023-02-01T02:27:34;5.27;;;1.73;;
11386;SDS011;5748;53.102;8.456;2023-02-01T02:33:37;7.43;;;2.47;;
11386;SDS011;5748;53.102;8.456;2023-02-01T02:36:15;5.57;;;1.60;;
11386;SDS011;5748;53.102;8.456;2023-02-01T02:38:52;4.87;;;1.80;;
11386;SDS011;5748;53.102;8.456;2023-02-01T02:41:27;7.43;;;1.90;;
11386;SDS011;5748;53.102;8.456;2023-02-01T02:44:32;3.30;;;1.50;;
11386;SDS011;5748;53.102;8.456;2023-02-01T02:47:24;3.77;;;1.60;;
11386;SDS011;5748;53.102;8.456;2023-02-01T02:50:02;5.07;;;1.87;;
11386;SDS011;5748;53.102;8.456;2023-02-01T02:52:57;3.77;;;1.80;;
11386;SDS011;5748;53.102;8.456;2023-02-01T02:55:48;3.97;;;1.90;;
11386;SDS011;5748;53.102;8.456;2023-02-01T02:58:17;3.77;;;1.40;;
11386;SDS011;5748;53.102;8.456;2023-02-01T03:01:05;3.70;;;1.80;;
11386;SDS011;5748;53.102;8.456;2023-02-01T03:03:50;4.70;;;1.70;;
11386;SDS011;5748;53.102;8.456;2023-02-01T03:06:35;4.33;;;1.50;;
11386;SDS011;5748;53.102;8.456;2023-02-01T03:09:05;3.77;;;1.80;;
11386;SDS011;5748;53.102;8.456;2023-02-01T03:11:41;5.17;;;1.67;;
11386;SDS011;5748;53.102;8.456;2023-02-01T03:14:30;5.13;;;1.90;;
11386;SDS011;5748;53.102;8.456;2023-02-01T03:17:04;5.43;;;2.00;;
11386;SDS011;5748;53.102;8.456;2023-02-01T03:19:37;6.03;;;2.10;;
11386;SDS011;5748;53.102;8.456;2023-02-01T03:22:12;7.80;;;2.30;;
11386;SDS011;5748;53.102;8.456;2023-02-01T03:24:42;5.43;;;1.90;;
11386;SDS011;5748;53.102;8.456;2023-02-01T03:27:15;4.30;;;1.70;;
11386;SDS011;5748;53.102;8.456;2023-02-01T03:29:49;4.63;;;1.77;;
11386;SDS011;5748;53.102;8.456;2023-02-01T03:32:22;4.33;;;1.80;;
11386;SDS011;5748;53.102;8.456;2023-02-01T03:34:49;5.73;;;2.00;;
11386;SDS011;5748;53.102;8.456;2023-02-01T03:37:21;4.20;;;1.70;;
11386;SDS011;5748;53.102;8.456;2023-02-01T03:39:53;4.20;;;1.83;;
11386;SDS011;5748;53.102;8.456;2023-02-01T03:42:27;3.17;;;1.60;;
11386;SDS011;5748;53.102;8.456;2023-02-01T03:45:01;4.40;;;2.00;;
11386;SDS011;5748;53.102;8.456;2023-02-01T03:47:34;4.90;;;1.80;;
11386;SDS011;5748;53.102;8.456;2023-02-01T03:50:06;4.83;;;1.90;;
11386;SDS011;5748;53.102;8.456;2023-02-01T03:52:41;2.80;;;1.37;;
11386;SDS011;5748;53.102;8.456;2023-02-01T03:55:11;3.07;;;1.43;;
11386;SDS011;5748;53.102;8.456;2023-02-01T03:57:43;4.87;;;1.60;;
11386;SDS011;5748;53.102;8.456;2023-02-01T04:00:26;4.17;;;1.70;;
11386;SDS011;5748;53.102;8.456;2023-02-01T04:02:54;3.20;;;1.30;;
11386;SDS011;5748;53.102;8.456;2023-02-01T04:05:21;3.93;;;1.40;;
11386;SDS011;5748;53.102;8.456;2023-02-01T04:07:50;4.60;;;1.90;;
11386;SDS011;5748;53.102;8.456;2023-02-01T04:10:19;4.10;;;1.77;;
11386;SDS011;5748;53.102;8.456;2023-02-01T04:12:46;3.20;;;1.50;;
11386;SDS011;5748;53.102;8.456;2023-02-01T04:15:13;3.70;;;1.60;;
11386;SDS011;5748;53.102;8.456;2023-02-01T04:17:40;3.83;;;1.60;;
11386;SDS011;5748;53.102;8.456;2023-02-01T04:20:08;5.13;;;2.10;;
11386;SDS011;5748;53.102;8.456;2023-02-01T04:22:36;5.17;;;2.00;;
11386;SDS011;5748;53.102;8.456;2023-02-01T04:25:06;6.23;;;2.10;;
11386;SDS011;5748;53.102;8.456;2023-02-01T04:27:34;4.30;;;1.90;;
11386;SDS011;5748;53.102;8.456;2023-02-01T04:30:01;4.63;;;1.63;;
11386;SDS011;5748;53.102;8.456;2023-02-01T04:32:36;5.00;;;1.77;;
11386;SDS011;5748;53.102;8.456;2023-02-01T04:35:04;4.73;;;1.80;;
11386;SDS011;5748;53.102;8.456;2023-02-01T04:37:32;4.00;;;1.70;;
11386;SDS011;5748;53.102;8.456;2023-02-01T04:39:59;3.80;;;1.40;;
11386;SDS011;5748;53.102;8.456;2023-02-01T04:42:30;7.10;;;2.20;;
11386;SDS011;5748;53.102;8.456;2023-02-01T04:44:57;4.77;;;1.80;;
11386;SDS011;5748;53.102;8.456;2023-02-01T04:47:32;6.23;;;2.10;;
11386;SDS011;5748;53.102;8.456;2023-02-01T04:49:59;4.40;;;1.80;;
11386;SDS011;5748;53.102;8.456;2023-02-01T04:52:26;4.47;;;2.30;;
11386;SDS011;5748;53.102;8.456;2023-02-01T04:54:53;3.80;;;1.90;;
11386;SDS011;5748;53.102;8.456;2023-02-01T04:57:22;4.43;;;1.80;;
11386;SDS011;5748;53.102;8.456;2023-02-01T04:59:51;4.70;;;1.93;;
11386;SDS011;5748;53.102;8.456;2023-02-01T05:02:19;4.23;;;1.93;;
11386;SDS011;5748;53.102;8.456;2023-02-01T05:04:46;5.70;;;2.10;;
11386;SDS011;5748;53.102;8.456;2023-02-01T05:07:13;5.10;;;1.90;;
11386;SDS011;5748;53.102;8.456;2023-02-01T05:09:40;6.97;;;2.10;;
11386;SDS011;5748;53.102;8.456;2023-02-01T05:12:07;2.90;;;1.63;;
11386;SDS011;5748;53.102;8.456;2023-02-01T05:14:59;4.50;;;1.70;;
11386;SDS011;5748;53.102;8.456;2023-02-01T05:17:26;4.57;;;1.80;;
11386;SDS011;5748;53.102;8.456;2023-02-01T05:19:53;5.47;;;1.83;;
11386;SDS011;5748;53.102;8.456;2023-02-01T05:22:20;3.87;;;1.70;;
11386;SDS011;5748;53.102;8.456;2023-02-01T05:24:47;4.93;;;1.67;;
11386;SDS011;5748;53.102;8.456;2023-02-01T05:27:14;4.70;;;1.93;;
11386;SDS011;5748;53.102;8.456;2023-02-01T05:29:50;3.33;;;1.57;;
11386;SDS011;5748;53.102;8.456;2023-02-01T05:32:18;3.30;;;1.57;;
11386;SDS011;5748;53.102;8.456;2023-02-01T05:34:45;3.03;;;1.40;;
11386;SDS011;5748;53.102;8.456;2023-02-01T05:37:12;3.37;;;1.30;;
11386;SDS011;5748;53.102;8.456;2023-02-01T05:42:29;3.30;;;1.40;;
11386;SDS011;5748;53.102;8.456;2023-02-01T05:44:56;3.23;;;1.40;;
11386;SDS011;5748;53.102;8.456;2023-02-01T05:47:24;3.47;;;1.30;;
11386;SDS011;5748;53.102;8.456;2023-02-01T05:52:28;3.90;;;1.53;;
11386;SDS011;5748;53.102;8.456;2023-02-01T05:54:55;4.13;;;1.60;;
11386;SDS011;5748;53.102;8.456;2023-02-01T05:57:22;4.47;;;1.60;;
11386;SDS011;5748;53.102;8.456;2023-02-01T06:02:21;3.00;;;1.30;;
11386;SDS011;5748;53.102;8.456;2023-02-01T06:04:50;3.50;;;1.50;;
11386;SDS011;5748;53.102;8.456;2023-02-01T06:07:25;4.20;;;1.60;;
11386;SDS011;5748;53.102;8.456;2023-02-01T06:09:52;4.03;;;1.70;;
11386;SDS011;5748;53.102;8.456;2023-02-01T06:12:20;3.00;;;1.50;;
11386;SDS011;5748;53.102;8.456;2023-02-01T06:14:47;5.23;;;1.80;;
11386;SDS011;5748;53.102;8.456;2023-02-01T06:17:14;4.43;;;1.90;;
11386;SDS011;5748;53.102;8.456;2023-02-01T06:19:47;3.83;;;2.20;;
11386;SDS011;5748;53.102;8.456;2023-02-01T06:22:15;3.67;;;1.67;;
11386;SDS011;5748;53.102;8.456;2023-02-01T06:24:42;2.57;;;1.27;;
11386;SDS011;5748;53.102;8.456;2023-02-01T06:27:10;4.23;;;1.50;;
11386;SDS011;5748;53.102;8.456;2023-02-01T06:29:38;2.73;;;1.40;;
11386;SDS011;5748;53.102;8.456;2023-02-01T06:32:05;3.60;;;1.60;;
11386;SDS011;5748;53.102;8.456;2023-02-01T06:34:32;2.53;;;1.30;;
11386;SDS011;5748;53.102;8.456;2023-02-01T06:37:06;2.83;;;1.37;;
11386;SDS011;5748;53.102;8.456;2023-02-01T06:39:34;2.30;;;1.20;;
11386;SDS011;5748;53.102;8.456;2023-02-01T06:42:01;3.03;;;1.43;;
11386;SDS011;5748;53.102;8.456;2023-02-01T06:44:28;4.70;;;1.30;;
11386;SDS011;5748;53.102;8.456;2023-02-01T06:46:55;2.90;;;1.20;;
11386;SDS011;5748;53.102;8.456;2023-02-01T06:49:22;2.30;;;1.13;;
11386;SDS011;5748;53.102;8.456;2023-02-01T06:51:49;3.57;;;1.40;;
11386;SDS011;5748;53.102;8.456;2023-02-01T06:54:17;2.63;;;1.40;;
11386;SDS011;5748;53.102;8.456;2023-02-01T06:56:46;5.60;;;1.53;;
11386;SDS011;5748;53.102;8.456;2023-02-01T06:59:12;5.30;;;1.90;;
11386;SDS011;5748;53.102;8.456;2023-02-01T07:01:41;3.57;;;1.53;;
11386;SDS011;5748;53.102;8.456;2023-02-01T07:04:14;3.73;;;1.60;;
11386;SDS011;5748;53.102;8.456;2023-02-01T07:06:41;3.60;;;1.70;;
11386;SDS011;5748;53.102;8.456;2023-02-01T07:09:08;5.20;;;1.70;;
11386;SDS011;5748;53.102;8.456;2023-02-01T07:11:56;4.73;;;1.70;;
11386;SDS011;5748;53.102;8.456;2023-02-01T07:17:10;3.43;;;1.63;;
11386;SDS011;5748;53.102;8.456;2023-02-01T07:19:37;4.83;;;1.70;;
11386;SDS011;5748;53.102;8.456;2023-02-01T07:22:16;4.40;;;1.63;;
11386;SDS011;5748;53.102;8.456;2023-02-01T07:27:33;3.60;;;1.63;;
11386;SDS011;5748;53.102;8.456;2023-02-01T07:32:54;4.80;;;1.73;;
11386;SDS011;5748;53.102;8.456;2023-02-01T07:35:25;3.90;;;1.73;;
11386;SDS011;5748;53.102;8.456;2023-02-01T07:37:53;3.47;;;1.47;;
11386;SDS011;5748;53.102;8.456;2023-02-01T07:40:33;7.00;;;1.70;;
11386;SDS011;5748;53.102;8.456;2023-02-01T07:43:01;4.03;;;1.70;;
11386;SDS011;5748;53.102;8.456;2023-02-01T07:45:31;6.23;;;1.97;;
11386;SDS011;5748;53.102;8.456;2023-02-01T07:48:15;4.33;;;1.70;;
11386;SDS011;5748;53.102;8.456;2023-02-01T07:50:43;4.63;;;1.80;;
11386;SDS011;5748;53.102;8.456;2023-02-01T07:53:24;3.50;;;1.87;;
11386;SDS011;5748;53.102;8.456;2023-02-01T07:55:56;2.90;;;1.70;;
11386;SDS011;5748;53.102;8.456;2023-02-01T07:58:25;2.37;;;1.20;;
11386;SDS011;5748;53.102;8.456;2023-02-01T08:00:52;3.70;;;1.63;;
11386;SDS011;5748;53.102;8.456;2023-02-01T08:03:38;2.80;;;1.50;;
11386;SDS011;5748;53.102;8.456;2023-02-01T08:06:05;3.87;;;1.73;;
11386;SDS011;5748;53.102;8.456;2023-02-01T08:08:32;4.93;;;1.70;;
11386;SDS011;5748;53.102;8.456;2023-02-01T08:11:00;5.17;;;1.67;;
11386;SDS011;5748;53.102;8.456;2023-02-01T08:13:30;3.83;;;1.60;;
11386;SDS011;5748;53.102;8.456;2023-02-01T08:15:59;2.67;;;1.37;;
11386;SDS011;5748;53.102;8.456;2023-02-01T08:18:27;4.33;;;1.43;;
11386;SDS011;5748;53.102;8.456;2023-02-01T08:20:56;3.57;;;1.33;;
11386;SDS011;5748;53.102;8.456;2023-02-01T08:23:29;3.23;;;1.47;;
11386;SDS011;5748;53.102;8.456;2023-02-01T08:26:03;5.73;;;1.83;;
11386;SDS011;5748;53.102;8.456;2023-02-01T08:28:34;3.57;;;1.43;;
11386;SDS011;5748;53.102;8.456;2023-02-01T08:31:03;3.87;;;1.60;;
11386;SDS011;5748;53.102;8.456;2023-02-01T08:33:33;5.40;;;1.73;;
11386;SDS011;5748;53.102;8.456;2023-02-01T08:36:02;2.50;;;1.50;;
11386;SDS011;5748;53.102;8.456;2023-02-01T08:38:31;2.70;;;1.50;;
11386;SDS011;5748;53.102;8.456;2023-02-01T08:41:03;5.97;;;1.53;;
11386;SDS011;5748;53.102;8.456;2023-02-01T08:43:31;3.77;;;1.50;;
11386;SDS011;5748;53.102;8.456;2023-02-01T08:46:00;5.10;;;1.53;;
11386;SDS011;5748;53.102;8.456;2023-02-01T08:48:27;5.47;;;1.87;;
11386;SDS011;5748;53.102;8.456;2023-02-01T08:50:54;3.80;;;1.60;;
11386;SDS011;5748;53.102;8.456;2023-02-01T08:53:22;4.53;;;1.53;;
11386;SDS011;5748;53.102;8.456;2023-02-01T08:55:49;3.83;;;1.53;;
11386;SDS011;5748;53.102;8.456;2023-02-01T08:58:16;3.37;;;1.50;;
11386;SDS011;5748;53.102;8.456;2023-02-01T09:00:46;4.73;;;1.60;;
11386;SDS011;5748;53.102;8.456;2023-02-01T09:03:13;4.70;;;1.73;;
11386;SDS011;5748;53.102;8.456;2023-02-01T09:05:40;3.07;;;1.50;;
11386;SDS011;5748;53.102;8.456;2023-02-01T09:08:07;4.23;;;1.60;;
11386;SDS011;5748;53.102;8.456;2023-02-01T09:10:35;4.63;;;1.43;;
11386;SDS011;5748;53.102;8.456;2023-02-01T09:13:02;3.70;;;1.60;;
11386;SDS011;5748;53.102;8.456;2023-02-01T09:15:29;4.23;;;1.47;;
11386;SDS011;5748;53.102;8.456;2023-02-01T09:17:58;3.93;;;1.60;;
11386;SDS011;5748;53.102;8.456;2023-02-01T09:20:25;4.57;;;1.90;;
11386;SDS011;5748;53.102;8.456;2023-02-01T09:22:54;4.40;;;1.80;;
11386;SDS011;5748;53.102;8.456;2023-02-01T09:25:21;3.97;;;1.50;;
11386;SDS011;5748;53.102;8.456;2023-02-01T09:27:48;3.47;;;1.60;;
11386;SDS011;5748;53.102;8.456;2023-02-01T09:30:15;3.73;;;1.60;;
11386;SDS011;5748;53.102;8.456;2023-02-01T09:32:43;5.63;;;1.90;;
11386;SDS011;5748;53.102;8.456;2023-02-01T09:35:11;4.80;;;2.10;;
11386;SDS011;5748;53.102;8.456;2023-02-01T09:37:38;3.93;;;1.70;;
11386;SDS011;5748;53.102;8.456;2023-02-01T09:40:06;3.23;;;1.50;;
11386;SDS011;5748;53.102;8.456;2023-02-01T09:42:44;2.97;;;1.53;;
11386;SDS011;5748;53.102;8.456;2023-02-01T09:45:29;4.30;;;1.73;;
11386;SDS011;5748;53.102;8.456;2023-02-01T09:48:08;4.27;;;1.60;;
11386;SDS011;5748;53.102;8.456;2023-02-01T09:50:41;7.07;;;2.00;;
11386;SDS011;5748;53.102;8.456;2023-02-01T09:53:15;5.57;;;2.10;;
11386;SDS011;5748;53.102;8.456;2023-02-01T09:55:48;3.97;;;1.73;;
11386;SDS011;5748;53.102;8.456;2023-02-01T09:58:19;4.00;;;1.80;;
11386;SDS011;5748;53.102;8.456;2023-02-01T10:00:54;5.33;;;1.77;;
11386;SDS011;5748;53.102;8.456;2023-02-01T10:03:24;3.53;;;1.60;;
11386;SDS011;5748;53.102;8.456;2023-02-01T10:06:09;4.17;;;1.63;;
11386;SDS011;5748;53.102;8.456;2023-02-01T10:08:57;4.57;;;1.77;;
11386;SDS011;5748;53.102;8.456;2023-02-01T10:11:42;5.43;;;1.90;;
11386;SDS011;5748;53.102;8.456;2023-02-01T10:14:46;4.93;;;1.70;;
11386;SDS011;5748;53.102;8.456;2023-02-01T10:17:25;5.23;;;1.80;;
11386;SDS011;5748;53.102;8.456;2023-02-01T10:20:15;5.17;;;1.67;;
11386;SDS011;5748;53.102;8.456;2023-02-01T10:22:51;3.60;;;1.60;;
11386;SDS011;5748;53.102;8.456;2023-02-01T10:25:28;2.97;;;1.50;;
11386;SDS011;5748;53.102;8.456;2023-02-01T10:28:03;4.57;;;1.37;;
11386;SDS011;5748;53.102;8.456;2023-02-01T10:30:31;4.80;;;2.10;;
11386;SDS011;5748;53.102;8.456;2023-02-01T10:33:12;3.87;;;1.90;;
11386;SDS011;5748;53.102;8.456;2023-02-01T10:35:44;4.07;;;1.87;;
11386;SDS011;5748;53.102;8.456;2023-02-01T10:38:16;3.67;;;1.63;;
11386;SDS011;5748;53.102;8.456;2023-02-01T10:40:51;5.03;;;1.90;;
11386;SDS011;5748;53.102;8.456;2023-02-01T10:43:19;2.90;;;1.40;;
11386;SDS011;5748;53.102;8.456;2023-02-01T10:45:46;2.87;;;1.47;;
11386;SDS011;5748;53.102;8.456;2023-02-01T10:48:13;5.03;;;1.60;;
11386;SDS011;5748;53.102;8.456;2023-02-01T10:50:44;3.83;;;1.43;;
11386;SDS011;5748;53.102;8.456;2023-02-01T10:53:18;2.73;;;1.40;;
11386;SDS011;5748;53.102;8.456;2023-02-01T10:55:52;5.13;;;1.50;;
11386;SDS011;5748;53.102;8.456;2023-02-01T10:58:20;3.50;;;1.83;;
11386;SDS011;5748;53.102;8.456;2023-02-01T11:00:54;3.23;;;1.30;;
11386;SDS011;5748;53.102;8.456;2023-02-01T11:03:34;3.73;;;1.40;;
11386;SDS011;5748;53.102;8.456;2023-02-01T11:06:09;4.37;;;1.80;;
11386;SDS011;5748;53.102;8.456;2023-02-01T11:08:52;3.53;;;1.47;;
11386;SDS011;5748;53.102;8.456;2023-02-01T11:11:21;2.53;;;1.20;;
11386;SDS011;5748;53.102;8.456;2023-02-01T11:13:53;3.83;;;1.50;;
11386;SDS011;5748;53.102;8.456;2023-02-01T11:16:28;4.07;;;1.40;;
11386;SDS011;5748;53.102;8.456;2023-02-01T11:19:00;2.70;;;1.33;;
11386;SDS011;5748;53.102;8.456;2023-02-01T11:21:27;3.37;;;1.70;;
11386;SDS011;5748;53.102;8.456;2023-02-01T11:23:56;2.83;;;1.40;;
11386;SDS011;5748;53.102;8.456;2023-02-01T11:26:28;3.67;;;1.40;;
11386;SDS011;5748;53.102;8.456;2023-02-01T11:28:58;3.27;;;1.17;;
11386;SDS011;5748;53.102;8.456;2023-02-01T11:31:30;1.83;;;1.20;;
11386;SDS011;5748;53.102;8.456;2023-02-01T11:33:59;4.07;;;1.40;;
11386;SDS011;5748;53.102;8.456;2023-02-01T11:36:34;3.07;;;1.57;;
11386;SDS011;5748;53.102;8.456;2023-02-01T11:39:09;3.07;;;1.10;;
11386;SDS011;5748;53.102;8.456;2023-02-01T11:41:55;2.97;;;1.20;;
11386;SDS011;5748;53.102;8.456;2023-02-01T11:44:30;1.87;;;1.07;;
11386;SDS011;5748;53.102;8.456;2023-02-01T11:47:18;2.33;;;1.10;;
11386;SDS011;5748;53.102;8.456;2023-02-01T11:49:57;2.17;;;1.20;;
11386;SDS011;5748;53.102;8.456;2023-02-01T11:52:34;1.60;;;0.97;;
11386;SDS011;5748;53.102;8.456;2023-02-01T11:55:23;2.23;;;1.13;;
11386;SDS011;5748;53.102;8.456;2023-02-01T11:58:37;1.20;;;1.00;;
11386;SDS011;5748;53.102;8.456;2023-02-01T12:01:43;3.17;;;1.20;;
11386;SDS011;5748;53.102;8.456;2023-02-01T12:07:28;3.53;;;1.30;;
11386;SDS011;5748;53.102;8.456;2023-02-01T12:10:16;3.67;;;1.10;;
11386;SDS011;5748;53.102;8.456;2023-02-01T12:12:58;0.90;;;0.70;;
11386;SDS011;5748;53.102;8.456;2023-02-01T12:15:41;0.97;;;0.60;;
11386;SDS011;5748;53.102;8.456;2023-02-01T12:18:27;0.73;;;0.50;;
11386;SDS011;5748;53.102;8.456;2023-02-01T12:21:27;0.50;;;0.50;;
11386;SDS011;5748;53.102;8.456;2023-02-01T12:24:20;0.40;;;0.40;;
11386;SDS011;5748;53.102;8.456;2023-02-01T12:27:19;0.60;;;0.60;;
11386;SDS011;5748;53.102;8.456;2023-02-01T12:30:17;0.40;;;0.40;;
11386;SDS011;5748;53.102;8.456;2023-02-01T12:33:07;0.67;;;0.67;;
11386;SDS011;5748;53.102;8.456;2023-02-01T12:35:47;0.60;;;0.60;;
11386;SDS011;5748;53.102;8.456;2023-02-01T12:41:24;0.50;;;0.50;;
11386;SDS011;5748;53.102;8.456;2023-02-01T12:44:26;0.60;;;0.50;;
11386;SDS011;5748;53.102;8.456;2023-02-01T12:47:00;0.50;;;0.50;;
11386;SDS011;5748;53.102;8.456;2023-02-01T12:49:35;0.40;;;0.40;;
11386;SDS011;5748;53.102;8.456;2023-02-01T12:52:14;0.30;;;0.30;;
11386;SDS011;5748;53.102;8.456;2023-02-01T12:55:01;0.57;;;0.57;;
11386;SDS011;5748;53.102;8.456;2023-02-01T12:57:37;0.50;;;0.50;;
11386;SDS011;5748;53.102;8.456;2023-02-01T13:00:14;0.50;;;0.50;;
11386;SDS011;5748;53.102;8.456;2023-02-01T13:02:52;0.60;;;0.60;;
11386;SDS011;5748;53.102;8.456;2023-02-01T13:05:27;0.60;;;0.60;;
11386;SDS011;5748;53.102;8.456;2023-02-01T13:08:04;0.70;;;0.50;;
11386;SDS011;5748;53.102;8.456;2023-02-01T13:10:36;0.87;;;0.70;;
11386;SDS011;5748;53.102;8.456;2023-02-01T13:13:11;0.63;;;0.50;;
11386;SDS011;5748;53.102;8.456;2023-02-01T13:15:46;0.50;;;0.50;;
11386;SDS011;5748;53.102;8.456;2023-02-01T13:18:21;0.73;;;0.50;;
11386;SDS011;5748;53.102;8.456;2023-02-01T13:21:03;1.47;;;0.70;;
11386;SDS011;5748;53.102;8.456;2023-02-01T13:23:35;1.40;;;0.70;;
11386;SDS011;5748;53.102;8.456;2023-02-01T13:26:05;1.23;;;0.60;;
11386;SDS011;5748;53.102;8.456;2023-02-01T13:28:34;0.90;;;0.60;;
11386;SDS011;5748;53.102;8.456;2023-02-01T13:31:17;0.90;;;0.67;;
11386;SDS011;5748;53.102;8.456;2023-02-01T13:34:06;0.70;;;0.70;;
11386;SDS011;5748;53.102;8.456;2023-02-01T13:37:05;1.03;;;0.60;;
11386;SDS011;5748;53.102;8.456;2023-02-01T13:39:51;1.43;;;0.70;;
11386;SDS011;5748;53.102;8.456;2023-02-01T13:42:34;1.47;;;0.70;;
11386;SDS011;5748;53.102;8.456;2023-02-01T13:45:13;1.03;;;0.47;;
11386;SDS011;5748;53.102;8.456;2023-02-01T13:47:47;1.40;;;0.80;;
11386;SDS011;5748;53.102;8.456;2023-02-01T13:50:20;2.03;;;0.73;;
11386;SDS011;5748;53.102;8.456;2023-02-01T13:52:52;2.33;;;0.93;;
11386;SDS011;5748;53.102;8.456;2023-02-01T13:55:25;1.37;;;0.70;;
11386;SDS011;5748;53.102;8.456;2023-02-01T13:58:00;2.03;;;0.90;;
11386;SDS011;5748;53.102;8.456;2023-02-01T14:00:33;1.27;;;0.70;;
11386;SDS011;5748;53.102;8.456;2023-02-01T14:03:06;2.20;;;0.80;;
11386;SDS011;5748;53.102;8.456;2023-02-01T14:06:00;2.33;;;0.90;;
11386;SDS011;5748;53.102;8.456;2023-02-01T14:08:41;1.37;;;0.90;;
11386;SDS011;5748;53.102;8.456;2023-02-01T14:11:37;1.30;;;0.80;;
11386;SDS011;5748;53.102;8.456;2023-02-01T14:23:20;1.90;;;0.90;;
11386;SDS011;5748;53.102;8.456;2023-02-01T14:26:05;3.43;;;1.47;;
11386;SDS011;5748;53.102;8.456;2023-02-01T14:28:42;2.40;;;1.30;;
11386;SDS011;5748;53.102;8.456;2023-02-01T14:31:24;2.53;;;1.40;;
11386;SDS011;5748;53.102;8.456;2023-02-01T14:37:02;3.43;;;1.53;;
11386;SDS011;5748;53.102;8.456;2023-02-01T14:39:36;3.57;;;1.50;;
11386;SDS011;5748;53.102;8.456;2023-02-01T14:42:21;3.93;;;1.60;;
11386;SDS011;5748;53.102;8.456;2023-02-01T14:44:52;3.50;;;1.50;;
11386;SDS011;5748;53.102;8.456;2023-02-01T14:47:31;4.47;;;1.93;;
11386;SDS011;5748;53.102;8.456;2023-02-01T14:50:02;5.03;;;1.60;;
11386;SDS011;5748;53.102;8.456;2023-02-01T14:52:40;2.23;;;1.33;;
11386;SDS011;5748;53.102;8.456;2023-02-01T14:55:14;5.07;;;1.80;;
11386;SDS011;5748;53.102;8.456;2023-02-01T14:57:46;3.17;;;1.73;;
11386;SDS011;5748;53.102;8.456;2023-02-01T15:00:19;4.30;;;1.87;;
11386;SDS011;5748;53.102;8.456;2023-02-01T15:02:50;3.53;;;1.73;;
11386;SDS011;5748;53.102;8.456;2023-02-01T15:05:22;4.03;;;1.60;;
11386;SDS011;5748;53.102;8.456;2023-02-01T15:07:58;4.93;;;2.13;;
11386;SDS011;5748;53.102;8.456;2023-02-01T15:10:32;4.83;;;1.80;;
11386;SDS011;5748;53.102;8.456;2023-02-01T15:13:11;4.37;;;1.77;;
11386;SDS011;5748;53.102;8.456;2023-02-01T15:15:59;3.17;;;1.40;;
11386;SDS011;5748;53.102;8.456;2023-02-01T15:18:31;3.60;;;1.70;;
11386;SDS011;5748;53.102;8.456;2023-02-01T15:21:15;4.20;;;1.67;;
11386;SDS011;5748;53.102;8.456;2023-02-01T15:23:46;3.93;;;1.57;;
11386;SDS011;5748;53.102;8.456;2023-02-01T15:26:27;3.67;;;1.47;;
11386;SDS011;5748;53.102;8.456;2023-02-01T15:28:56;3.60;;;1.50;;
11386;SDS011;5748;53.102;8.456;2023-02-01T15:31:31;3.77;;;1.97;;
11386;SDS011;5748;53.102;8.456;2023-02-01T15:34:01;4.33;;;1.70;;
11386;SDS011;5748;53.102;8.456;2023-02-01T15:36:36;5.23;;;1.93;;
11386;SDS011;5748;53.102;8.456;2023-02-01T15:39:15;4.27;;;1.70;;
11386;SDS011;5748;53.102;8.456;2023-02-01T15:41:51;4.60;;;1.70;;
11386;SDS011;5748;53.102;8.456;2023-02-01T15:47:14;4.53;;;1.57;;
11386;SDS011;5748;53.102;8.456;2023-02-01T15:49:45;4.17;;;1.73;;
11386;SDS011;5748;53.102;8.456;2023-02-01T15:52:25;4.73;;;1.80;;
11386;SDS011;5748;53.102;8.456;2023-02-01T15:55:07;5.10;;;2.03;;
11386;SDS011;5748;53.102;8.456;2023-02-01T15:57:45;5.60;;;1.50;;
11386;SDS011;5748;53.102;8.456;2023-02-01T16:00:18;4.23;;;1.70;;
11386;SDS011;5748;53.102;8.456;2023-02-01T16:02:53;5.83;;;2.13;;
11386;SDS011;5748;53.102;8.456;2023-02-01T16:05:27;2.80;;;1.20;;
11386;SDS011;5748;53.102;8.456;2023-02-01T16:08:03;4.33;;;1.20;;
11386;SDS011;5748;53.102;8.456;2023-02-01T16:10:39;2.90;;;1.30;;
11386;SDS011;5748;53.102;8.456;2023-02-01T16:13:09;2.67;;;1.00;;
11386;SDS011;5748;53.102;8.456;2023-02-01T16:15:37;2.10;;;1.10;;
11386;SDS011;5748;53.102;8.456;2023-02-01T16:18:14;1.67;;;1.00;;
11386;SDS011;5748;53.102;8.456;2023-02-01T16:20:47;1.83;;;0.90;;